Aviation Digital Data Service (ADDS)

Output produced by METARs form (2003 UTC 18 April 2021)
found at http://www.aviationweather.gov/metar/data/
 
METAR text: LFRS 181930Z AUTO 03003KT CAVOK 10/M01 Q1022 NOSIG
Conditions at: LFRS (NANTES/CHATEAU B, FR) observed 1930 UTC 18 April 2021
Temperature: 10.0°C (50°F)
Dewpoint: -1.0°C (30°F) [RH = 46%]
Pressure (altimeter): 30.18 inches Hg (1022.0 mb)
Winds: from the NNE (30 degrees) at 3 MPH (3 knots; 1.5 m/s)
Visibility: 6 or more miles (10+ km)
Ceiling: ceiling and visibility are OK
Clouds: unknown
Weather: no significant weather observed at this time

METAR text: LFRS 181900Z AUTO 01003KT 330V040 CAVOK 11/M01 Q1022 NOSIG
Conditions at: LFRS (NANTES/CHATEAU B, FR) observed 1900 UTC 18 April 2021
Temperature: 11.0°C (52°F)
Dewpoint: -1.0°C (30°F) [RH = 43%]
Pressure (altimeter): 30.18 inches Hg (1022.0 mb)
Winds: from the N (10 degrees) at 3 MPH (3 knots; 1.5 m/s)
Visibility: 6 or more miles (10+ km)
Ceiling: ceiling and visibility are OK
Clouds: unknown
Weather: no significant weather observed at this time

METAR text: LFRS 181830Z AUTO 02003KT 340V060 CAVOK 12/M01 Q1022 NOSIG
Conditions at: LFRS (NANTES/CHATEAU B, FR) observed 1830 UTC 18 April 2021
Temperature: 12.0°C (54°F)
Dewpoint: -1.0°C (30°F) [RH = 40%]
Pressure (altimeter): 30.18 inches Hg (1022.0 mb)
Winds: from the NNE (20 degrees) at 3 MPH (3 knots; 1.5 m/s)
Visibility: 6 or more miles (10+ km)
Ceiling: ceiling and visibility are OK
Clouds: unknown
Weather: no significant weather observed at this time

METAR text: LFRS 181800Z AUTO 03005KT 350V060 CAVOK 14/M01 Q1022 NOSIG
Conditions at: LFRS (NANTES/CHATEAU B, FR) observed 1800 UTC 18 April 2021
Temperature: 14.0°C (57°F)
Dewpoint: -1.0°C (30°F) [RH = 36%]
Pressure (altimeter): 30.18 inches Hg (1022.0 mb)
Winds: from the NNE (30 degrees) at 6 MPH (5 knots; 2.6 m/s)
Visibility: 6 or more miles (10+ km)
Ceiling: ceiling and visibility are OK
Clouds: unknown
Weather: no significant weather observed at this time

METAR text: LFRS 181730Z AUTO 02005KT 330V060 CAVOK 14/M02 Q1022 NOSIG
Conditions at: LFRS (NANTES/CHATEAU B, FR) observed 1730 UTC 18 April 2021
Temperature: 14.0°C (57°F)
Dewpoint: -2.0°C (28°F) [RH = 33%]
Pressure (altimeter): 30.18 inches Hg (1022.0 mb)
Winds: from the NNE (20 degrees) at 6 MPH (5 knots; 2.6 m/s)
Visibility: 6 or more miles (10+ km)
Ceiling: ceiling and visibility are OK
Clouds: unknown
Weather: no significant weather observed at this time

METAR text: LFRS 181700Z AUTO 01005KT 320V070 CAVOK 15/M00 Q1021 NOSIG
Conditions at: LFRS (NANTES/CHATEAU B, FR) observed 1700 UTC 18 April 2021
Temperature: 15.0°C (59°F)
Dewpoint: 0.0°C (32°F) [RH = 36%]
Pressure (altimeter): 30.15 inches Hg (1021.0 mb)
Winds: from the N (10 degrees) at 6 MPH (5 knots; 2.6 m/s)
Visibility: 6 or more miles (10+ km)
Ceiling: ceiling and visibility are OK
Clouds: unknown
Weather: no significant weather observed at this time

METAR text: LFRS 181630Z AUTO 03006KT 350V080 CAVOK 15/M01 Q1021 NOSIG
Conditions at: LFRS (NANTES/CHATEAU B, FR) observed 1630 UTC 18 April 2021
Temperature: 15.0°C (59°F)
Dewpoint: -1.0°C (30°F) [RH = 33%]
Pressure (altimeter): 30.15 inches Hg (1021.0 mb)
Winds: from the NNE (30 degrees) at 7 MPH (6 knots; 3.1 m/s)
Visibility: 6 or more miles (10+ km)
Ceiling: ceiling and visibility are OK
Clouds: unknown
Weather: no significant weather observed at this time

METAR text: LFRS 181600Z AUTO 05006KT 010V090 CAVOK 15/01 Q1021 NOSIG
Conditions at: LFRS (NANTES/CHATEAU B, FR) observed 1600 UTC 18 April 2021
Temperature: 15.0°C (59°F)
Dewpoint: 1.0°C (34°F) [RH = 39%]
Pressure (altimeter): 30.15 inches Hg (1021.0 mb)
Winds: from the NE (50 degrees) at 7 MPH (6 knots; 3.1 m/s)
Visibility: 6 or more miles (10+ km)
Ceiling: ceiling and visibility are OK
Clouds: unknown
Weather: no significant weather observed at this time

METAR text: LFRS 181530Z AUTO VRB05KT CAVOK 15/M01 Q1021 NOSIG
Conditions at: LFRS (NANTES/CHATEAU B, FR) observed 1530 UTC 18 April 2021
Temperature: 15.0°C (59°F)
Dewpoint: -1.0°C (30°F) [RH = 33%]
Pressure (altimeter): 30.15 inches Hg (1021.0 mb)
Winds: variable direction winds at 6 MPH (5 knots; 2.6 m/s)
Visibility: 6 or more miles (10+ km)
Ceiling: ceiling and visibility are OK
Clouds: unknown
Weather: no significant weather observed at this time

METAR text: LFRS 181500Z AUTO VRB05KT CAVOK 16/M00 Q1022 NOSIG
Conditions at: LFRS (NANTES/CHATEAU B, FR) observed 1500 UTC 18 April 2021
Temperature: 16.0°C (61°F)
Dewpoint: 0.0°C (32°F) [RH = 34%]
Pressure (altimeter): 30.18 inches Hg (1022.0 mb)
Winds: variable direction winds at 6 MPH (5 knots; 2.6 m/s)
Visibility: 6 or more miles (10+ km)
Ceiling: ceiling and visibility are OK
Clouds: unknown
Weather: no significant weather observed at this time

METAR text: LFRS 181430Z AUTO VRB04KT CAVOK 15/M02 Q1022 NOSIG
Conditions at: LFRS (NANTES/CHATEAU B, FR) observed 1430 UTC 18 April 2021
Temperature: 15.0°C (59°F)
Dewpoint: -2.0°C (28°F) [RH = 31%]
Pressure (altimeter): 30.18 inches Hg (1022.0 mb)
Winds: variable direction winds at 5 MPH (4 knots; 2.1 m/s)
Visibility: 6 or more miles (10+ km)
Ceiling: ceiling and visibility are OK
Clouds: unknown
Weather: no significant weather observed at this time

METAR text: LFRS 181400Z AUTO 03006KT 320V090 CAVOK 15/00 Q1022 NOSIG
Conditions at: LFRS (NANTES/CHATEAU B, FR) observed 1400 UTC 18 April 2021
Temperature: 15.0°C (59°F)
Dewpoint: 0.0°C (32°F) [RH = 36%]
Pressure (altimeter): 30.18 inches Hg (1022.0 mb)
Winds: from the NNE (30 degrees) at 7 MPH (6 knots; 3.1 m/s)
Visibility: 6 or more miles (10+ km)
Ceiling: ceiling and visibility are OK
Clouds: unknown
Weather: no significant weather observed at this time

METAR text: LFRS 181330Z AUTO VRB04KT CAVOK 15/01 Q1022 NOSIG
Conditions at: LFRS (NANTES/CHATEAU B, FR) observed 1330 UTC 18 April 2021
Temperature: 15.0°C (59°F)
Dewpoint: 1.0°C (34°F) [RH = 39%]
Pressure (altimeter): 30.18 inches Hg (1022.0 mb)
Winds: variable direction winds at 5 MPH (4 knots; 2.1 m/s)
Visibility: 6 or more miles (10+ km)
Ceiling: ceiling and visibility are OK
Clouds: unknown
Weather: no significant weather observed at this time

METAR text: LFRS 181300Z AUTO 02006KT 320V080 CAVOK 14/01 Q1023 NOSIG
Conditions at: LFRS (NANTES/CHATEAU B, FR) observed 1300 UTC 18 April 2021
Temperature: 14.0°C (57°F)
Dewpoint: 1.0°C (34°F) [RH = 41%]
Pressure (altimeter): 30.21 inches Hg (1023.0 mb)
Winds: from the NNE (20 degrees) at 7 MPH (6 knots; 3.1 m/s)
Visibility: 6 or more miles (10+ km)
Ceiling: ceiling and visibility are OK
Clouds: unknown
Weather: no significant weather observed at this time

METAR text: LFRS 181230Z AUTO 35005KT 260V030 CAVOK 14/01 Q1023 NOSIG
Conditions at: LFRS (NANTES/CHATEAU B, FR) observed 1230 UTC 18 April 2021
Temperature: 14.0°C (57°F)
Dewpoint: 1.0°C (34°F) [RH = 41%]
Pressure (altimeter): 30.21 inches Hg (1023.0 mb)
Winds: from the N (350 degrees) at 6 MPH (5 knots; 2.6 m/s)
Visibility: 6 or more miles (10+ km)
Ceiling: ceiling and visibility are OK
Clouds: unknown
Weather: no significant weather observed at this time

METAR text: LFRS 181200Z AUTO 06005KT 340V130 CAVOK 14/01 Q1023 NOSIG
Conditions at: LFRS (NANTES/CHATEAU B, FR) observed 1200 UTC 18 April 2021
Temperature: 14.0°C (57°F)
Dewpoint: 1.0°C (34°F) [RH = 41%]
Pressure (altimeter): 30.21 inches Hg (1023.0 mb)
Winds: from the ENE (60 degrees) at 6 MPH (5 knots; 2.6 m/s)
Visibility: 6 or more miles (10+ km)
Ceiling: ceiling and visibility are OK
Clouds: unknown
Weather: no significant weather observed at this time

METAR text: LFRS 181130Z AUTO VRB03KT CAVOK 13/03 Q1023 NOSIG
Conditions at: LFRS (NANTES/CHATEAU B, FR) observed 1130 UTC 18 April 2021
Temperature: 13.0°C (55°F)
Dewpoint: 3.0°C (37°F) [RH = 51%]
Pressure (altimeter): 30.21 inches Hg (1023.0 mb)
Winds: variable direction winds at 3 MPH (3 knots; 1.5 m/s)
Visibility: 6 or more miles (10+ km)
Ceiling: ceiling and visibility are OK
Clouds: unknown
Weather: no significant weather observed at this time

METAR text: LFRS 181100Z AUTO VRB05KT CAVOK 13/02 Q1024 NOSIG
Conditions at: LFRS (NANTES/CHATEAU B, FR) observed 1100 UTC 18 April 2021
Temperature: 13.0°C (55°F)
Dewpoint: 2.0°C (36°F) [RH = 47%]
Pressure (altimeter): 30.24 inches Hg (1024.0 mb)
Winds: variable direction winds at 6 MPH (5 knots; 2.6 m/s)
Visibility: 6 or more miles (10+ km)
Ceiling: ceiling and visibility are OK
Clouds: unknown
Weather: no significant weather observed at this time

METAR text: LFRS 181030Z AUTO VRB04KT CAVOK 12/02 Q1024 NOSIG
Conditions at: LFRS (NANTES/CHATEAU B, FR) observed 1030 UTC 18 April 2021
Temperature: 12.0°C (54°F)
Dewpoint: 2.0°C (36°F) [RH = 50%]
Pressure (altimeter): 30.24 inches Hg (1024.0 mb)
Winds: variable direction winds at 5 MPH (4 knots; 2.1 m/s)
Visibility: 6 or more miles (10+ km)
Ceiling: ceiling and visibility are OK
Clouds: unknown
Weather: no significant weather observed at this time

METAR text: LFRS 181000Z AUTO VRB04KT CAVOK 11/02 Q1024 NOSIG
Conditions at: LFRS (NANTES/CHATEAU B, FR) observed 1000 UTC 18 April 2021
Temperature: 11.0°C (52°F)
Dewpoint: 2.0°C (36°F) [RH = 54%]
Pressure (altimeter): 30.24 inches Hg (1024.0 mb)
Winds: variable direction winds at 5 MPH (4 knots; 2.1 m/s)
Visibility: 6 or more miles (10+ km)
Ceiling: ceiling and visibility are OK
Clouds: unknown
Weather: no significant weather observed at this time

METAR text: LFRS 180930Z AUTO 03004KT 300V110 CAVOK 10/02 Q1024 NOSIG
Conditions at: LFRS (NANTES/CHATEAU B, FR) observed 0930 UTC 18 April 2021
Temperature: 10.0°C (50°F)
Dewpoint: 2.0°C (36°F) [RH = 57%]
Pressure (altimeter): 30.24 inches Hg (1024.0 mb)
Winds: from the NNE (30 degrees) at 5 MPH (4 knots; 2.1 m/s)
Visibility: 6 or more miles (10+ km)
Ceiling: ceiling and visibility are OK
Clouds: unknown
Weather: no significant weather observed at this time

METAR text: LFRS 180900Z AUTO 01004KT 290V090 CAVOK 10/02 Q1024 NOSIG
Conditions at: LFRS (NANTES/CHATEAU B, FR) observed 0900 UTC 18 April 2021
Temperature: 10.0°C (50°F)
Dewpoint: 2.0°C (36°F) [RH = 57%]
Pressure (altimeter): 30.24 inches Hg (1024.0 mb)
Winds: from the N (10 degrees) at 5 MPH (4 knots; 2.1 m/s)
Visibility: 6 or more miles (10+ km)
Ceiling: ceiling and visibility are OK
Clouds: unknown
Weather: no significant weather observed at this time

METAR text: LFRS 180830Z AUTO 03004KT 340V090 CAVOK 09/02 Q1024 NOSIG
Conditions at: LFRS (NANTES/CHATEAU B, FR) observed 0830 UTC 18 April 2021
Temperature: 9.0°C (48°F)
Dewpoint: 2.0°C (36°F) [RH = 61%]
Pressure (altimeter): 30.24 inches Hg (1024.0 mb)
Winds: from the NNE (30 degrees) at 5 MPH (4 knots; 2.1 m/s)
Visibility: 6 or more miles (10+ km)
Ceiling: ceiling and visibility are OK
Clouds: unknown
Weather: no significant weather observed at this time

METAR text: LFRS 180800Z AUTO 03005KT 350V070 CAVOK 08/01 Q1024 NOSIG
Conditions at: LFRS (NANTES/CHATEAU B, FR) observed 0800 UTC 18 April 2021
Temperature: 8.0°C (46°F)
Dewpoint: 1.0°C (34°F) [RH = 61%]
Pressure (altimeter): 30.24 inches Hg (1024.0 mb)
Winds: from the NNE (30 degrees) at 6 MPH (5 knots; 2.6 m/s)
Visibility: 6 or more miles (10+ km)
Ceiling: ceiling and visibility are OK
Clouds: unknown
Weather: no significant weather observed at this time

METAR text: LFRS 180730Z AUTO 03005KT 340V060 CAVOK 06/00 Q1024 NOSIG
Conditions at: LFRS (NANTES/CHATEAU B, FR) observed 0730 UTC 18 April 2021
Temperature: 6.0°C (43°F)
Dewpoint: 0.0°C (32°F) [RH = 65%]
Pressure (altimeter): 30.24 inches Hg (1024.0 mb)
Winds: from the NNE (30 degrees) at 6 MPH (5 knots; 2.6 m/s)
Visibility: 6 or more miles (10+ km)
Ceiling: ceiling and visibility are OK
Clouds: unknown
Weather: no significant weather observed at this time

METAR text: LFRS 180700Z AUTO 03004KT 350V070 CAVOK 05/00 Q1024 NOSIG
Conditions at: LFRS (NANTES/CHATEAU B, FR) observed 0700 UTC 18 April 2021
Temperature: 5.0°C (41°F)
Dewpoint: 0.0°C (32°F) [RH = 70%]
Pressure (altimeter): 30.24 inches Hg (1024.0 mb)
Winds: from the NNE (30 degrees) at 5 MPH (4 knots; 2.1 m/s)
Visibility: 6 or more miles (10+ km)
Ceiling: ceiling and visibility are OK
Clouds: unknown
Weather: no significant weather observed at this time

METAR text: LFRS 180630Z AUTO 36003KT CAVOK 03/01 Q1024 NOSIG
Conditions at: LFRS (NANTES/CHATEAU B, FR) observed 0630 UTC 18 April 2021
Temperature: 3.0°C (37°F)
Dewpoint: 1.0°C (34°F) [RH = 87%]
Pressure (altimeter): 30.24 inches Hg (1024.0 mb)
Winds: from the N (360 degrees) at 3 MPH (3 knots; 1.5 m/s)
Visibility: 6 or more miles (10+ km)
Ceiling: ceiling and visibility are OK
Clouds: unknown
Weather: no significant weather observed at this time

METAR text: LFRS 180600Z AUTO VRB03KT CAVOK 01/M01 Q1024 NOSIG
Conditions at: LFRS (NANTES/CHATEAU B, FR) observed 0600 UTC 18 April 2021
Temperature: 1.0°C (34°F)
Dewpoint: -1.0°C (30°F) [RH = 86%]
Pressure (altimeter): 30.24 inches Hg (1024.0 mb)
Winds: variable direction winds at 3 MPH (3 knots; 1.5 m/s)
Visibility: 6 or more miles (10+ km)
Ceiling: ceiling and visibility are OK
Clouds: unknown
Weather: no significant weather observed at this time

METAR text: LFRS 180530Z AUTO 35003KT 320V040 CAVOK 00/M02 Q1024 NOSIG
Conditions at: LFRS (NANTES/CHATEAU B, FR) observed 0530 UTC 18 April 2021
Temperature: 0.0°C (32°F)
Dewpoint: -2.0°C (28°F) [RH = 86%]
Pressure (altimeter): 30.24 inches Hg (1024.0 mb)
Winds: from the N (350 degrees) at 3 MPH (3 knots; 1.5 m/s)
Visibility: 6 or more miles (10+ km)
Ceiling: ceiling and visibility are OK
Clouds: unknown
Weather: no significant weather observed at this time

METAR text: LFRS 180500Z AUTO 36003KT 330V040 CAVOK 01/M01 Q1024 NOSIG
Conditions at: LFRS (NANTES/CHATEAU B, FR) observed 0500 UTC 18 April 2021
Temperature: 1.0°C (34°F)
Dewpoint: -1.0°C (30°F) [RH = 86%]
Pressure (altimeter): 30.24 inches Hg (1024.0 mb)
Winds: from the N (360 degrees) at 3 MPH (3 knots; 1.5 m/s)
Visibility: 6 or more miles (10+ km)
Ceiling: ceiling and visibility are OK
Clouds: unknown
Weather: no significant weather observed at this time

METAR text: LFRS 180430Z AUTO 36003KT CAVOK 00/M01 Q1024 NOSIG
Conditions at: LFRS (NANTES/CHATEAU B, FR) observed 0430 UTC 18 April 2021
Temperature: 0.0°C (32°F)
Dewpoint: -1.0°C (30°F) [RH = 93%]
Pressure (altimeter): 30.24 inches Hg (1024.0 mb)
Winds: from the N (360 degrees) at 3 MPH (3 knots; 1.5 m/s)
Visibility: 6 or more miles (10+ km)
Ceiling: ceiling and visibility are OK
Clouds: unknown
Weather: no significant weather observed at this time

METAR text: LFRS 180400Z AUTO VRB03KT CAVOK 01/M01 Q1024 NOSIG
Conditions at: LFRS (NANTES/CHATEAU B, FR) observed 0400 UTC 18 April 2021
Temperature: 1.0°C (34°F)
Dewpoint: -1.0°C (30°F) [RH = 86%]
Pressure (altimeter): 30.24 inches Hg (1024.0 mb)
Winds: variable direction winds at 3 MPH (3 knots; 1.5 m/s)
Visibility: 6 or more miles (10+ km)
Ceiling: ceiling and visibility are OK
Clouds: unknown
Weather: no significant weather observed at this time

METAR text: LFRS 180330Z AUTO 35003KT CAVOK 02/M00 Q1024 NOSIG
Conditions at: LFRS (NANTES/CHATEAU B, FR) observed 0330 UTC 18 April 2021
Temperature: 2.0°C (36°F)
Dewpoint: 0.0°C (32°F) [RH = 87%]
Pressure (altimeter): 30.24 inches Hg (1024.0 mb)
Winds: from the N (350 degrees) at 3 MPH (3 knots; 1.5 m/s)
Visibility: 6 or more miles (10+ km)
Ceiling: ceiling and visibility are OK
Clouds: unknown
Weather: no significant weather observed at this time

METAR text: LFRS 180300Z AUTO 35003KT CAVOK 01/M01 Q1024 NOSIG
Conditions at: LFRS (NANTES/CHATEAU B, FR) observed 0300 UTC 18 April 2021
Temperature: 1.0°C (34°F)
Dewpoint: -1.0°C (30°F) [RH = 86%]
Pressure (altimeter): 30.24 inches Hg (1024.0 mb)
Winds: from the N (350 degrees) at 3 MPH (3 knots; 1.5 m/s)
Visibility: 6 or more miles (10+ km)
Ceiling: ceiling and visibility are OK
Clouds: unknown
Weather: no significant weather observed at this time

METAR text: LFRS 180230Z AUTO 35003KT CAVOK 02/M00 Q1024 NOSIG
Conditions at: LFRS (NANTES/CHATEAU B, FR) observed 0230 UTC 18 April 2021
Temperature: 2.0°C (36°F)
Dewpoint: 0.0°C (32°F) [RH = 87%]
Pressure (altimeter): 30.24 inches Hg (1024.0 mb)
Winds: from the N (350 degrees) at 3 MPH (3 knots; 1.5 m/s)
Visibility: 6 or more miles (10+ km)
Ceiling: ceiling and visibility are OK
Clouds: unknown
Weather: no significant weather observed at this time

METAR text: LFRS 180200Z AUTO 36003KT CAVOK 02/00 Q1024 NOSIG
Conditions at: LFRS (NANTES/CHATEAU B, FR) observed 0200 UTC 18 April 2021
Temperature: 2.0°C (36°F)
Dewpoint: 0.0°C (32°F) [RH = 87%]
Pressure (altimeter): 30.24 inches Hg (1024.0 mb)
Winds: from the N (360 degrees) at 3 MPH (3 knots; 1.5 m/s)
Visibility: 6 or more miles (10+ km)
Ceiling: ceiling and visibility are OK
Clouds: unknown
Weather: no significant weather observed at this time

METAR text: LFRS 180130Z AUTO 01003KT 330V040 CAVOK 03/00 Q1024 NOSIG
Conditions at: LFRS (NANTES/CHATEAU B, FR) observed 0130 UTC 18 April 2021
Temperature: 3.0°C (37°F)
Dewpoint: 0.0°C (32°F) [RH = 81%]
Pressure (altimeter): 30.24 inches Hg (1024.0 mb)
Winds: from the N (10 degrees) at 3 MPH (3 knots; 1.5 m/s)
Visibility: 6 or more miles (10+ km)
Ceiling: ceiling and visibility are OK
Clouds: unknown
Weather: no significant weather observed at this time

METAR text: LFRS 180100Z AUTO 01004KT CAVOK 04/01 Q1024 NOSIG
Conditions at: LFRS (NANTES/CHATEAU B, FR) observed 0100 UTC 18 April 2021
Temperature: 4.0°C (39°F)
Dewpoint: 1.0°C (34°F) [RH = 81%]
Pressure (altimeter): 30.24 inches Hg (1024.0 mb)
Winds: from the N (10 degrees) at 5 MPH (4 knots; 2.1 m/s)
Visibility: 6 or more miles (10+ km)
Ceiling: ceiling and visibility are OK
Clouds: unknown
Weather: no significant weather observed at this time

METAR text: LFRS 180030Z AUTO 02004KT 350V050 CAVOK 05/01 Q1025 NOSIG
Conditions at: LFRS (NANTES/CHATEAU B, FR) observed 0030 UTC 18 April 2021
Temperature: 5.0°C (41°F)
Dewpoint: 1.0°C (34°F) [RH = 75%]
Pressure (altimeter): 30.27 inches Hg (1025.0 mb)
Winds: from the NNE (20 degrees) at 5 MPH (4 knots; 2.1 m/s)
Visibility: 6 or more miles (10+ km)
Ceiling: ceiling and visibility are OK
Clouds: unknown
Weather: no significant weather observed at this time

METAR text: LFRS 180000Z AUTO 02004KT 340V050 CAVOK 06/02 Q1025 NOSIG
Conditions at: LFRS (NANTES/CHATEAU B, FR) observed 0000 UTC 18 April 2021
Temperature: 6.0°C (43°F)
Dewpoint: 2.0°C (36°F) [RH = 75%]
Pressure (altimeter): 30.27 inches Hg (1025.0 mb)
Winds: from the NNE (20 degrees) at 5 MPH (4 knots; 2.1 m/s)
Visibility: 6 or more miles (10+ km)
Ceiling: ceiling and visibility are OK
Clouds: unknown
Weather: no significant weather observed at this time

METAR text: LFRS 172330Z AUTO 02005KT 350V050 CAVOK 06/02 Q1025 NOSIG
Conditions at: LFRS (NANTES/CHATEAU B, FR) observed 2330 UTC 17 April 2021
Temperature: 6.0°C (43°F)
Dewpoint: 2.0°C (36°F) [RH = 75%]
Pressure (altimeter): 30.27 inches Hg (1025.0 mb)
Winds: from the NNE (20 degrees) at 6 MPH (5 knots; 2.6 m/s)
Visibility: 6 or more miles (10+ km)
Ceiling: ceiling and visibility are OK
Clouds: unknown
Weather: no significant weather observed at this time

METAR text: LFRS 172300Z AUTO 02006KT 340V050 CAVOK 07/02 Q1025 NOSIG
Conditions at: LFRS (NANTES/CHATEAU B, FR) observed 2300 UTC 17 April 2021
Temperature: 7.0°C (45°F)
Dewpoint: 2.0°C (36°F) [RH = 70%]
Pressure (altimeter): 30.27 inches Hg (1025.0 mb)
Winds: from the NNE (20 degrees) at 7 MPH (6 knots; 3.1 m/s)
Visibility: 6 or more miles (10+ km)
Ceiling: ceiling and visibility are OK
Clouds: unknown
Weather: no significant weather observed at this time

METAR text: LFRS 172230Z AUTO 01005KT 330V040 CAVOK 07/02 Q1025 NOSIG
Conditions at: LFRS (NANTES/CHATEAU B, FR) observed 2230 UTC 17 April 2021
Temperature: 7.0°C (45°F)
Dewpoint: 2.0°C (36°F) [RH = 70%]
Pressure (altimeter): 30.27 inches Hg (1025.0 mb)
Winds: from the N (10 degrees) at 6 MPH (5 knots; 2.6 m/s)
Visibility: 6 or more miles (10+ km)
Ceiling: ceiling and visibility are OK
Clouds: unknown
Weather: no significant weather observed at this time

METAR text: LFRS 172200Z AUTO 35004KT 310V050 CAVOK 07/02 Q1025 NOSIG
Conditions at: LFRS (NANTES/CHATEAU B, FR) observed 2200 UTC 17 April 2021
Temperature: 7.0°C (45°F)
Dewpoint: 2.0°C (36°F) [RH = 70%]
Pressure (altimeter): 30.27 inches Hg (1025.0 mb)
Winds: from the N (350 degrees) at 5 MPH (4 knots; 2.1 m/s)
Visibility: 6 or more miles (10+ km)
Ceiling: ceiling and visibility are OK
Clouds: unknown
Weather: no significant weather observed at this time

METAR text: LFRS 172130Z AUTO 34004KT 320V020 CAVOK 06/02 Q1025 NOSIG
Conditions at: LFRS (NANTES/CHATEAU B, FR) observed 2130 UTC 17 April 2021
Temperature: 6.0°C (43°F)
Dewpoint: 2.0°C (36°F) [RH = 75%]
Pressure (altimeter): 30.27 inches Hg (1025.0 mb)
Winds: from the NNW (340 degrees) at 5 MPH (4 knots; 2.1 m/s)
Visibility: 6 or more miles (10+ km)
Ceiling: ceiling and visibility are OK
Clouds: unknown
Weather: no significant weather observed at this time

METAR text: LFRS 172100Z AUTO 34003KT 320V020 CAVOK 07/01 Q1025 NOSIG
Conditions at: LFRS (NANTES/CHATEAU B, FR) observed 2100 UTC 17 April 2021
Temperature: 7.0°C (45°F)
Dewpoint: 1.0°C (34°F) [RH = 66%]
Pressure (altimeter): 30.27 inches Hg (1025.0 mb)
Winds: from the NNW (340 degrees) at 3 MPH (3 knots; 1.5 m/s)
Visibility: 6 or more miles (10+ km)
Ceiling: ceiling and visibility are OK
Clouds: unknown
Weather: no significant weather observed at this time

METAR text: LFRS 172030Z AUTO 35003KT 310V030 CAVOK 08/02 Q1025 NOSIG
Conditions at: LFRS (NANTES/CHATEAU B, FR) observed 2030 UTC 17 April 2021
Temperature: 8.0°C (46°F)
Dewpoint: 2.0°C (36°F) [RH = 66%]
Pressure (altimeter): 30.27 inches Hg (1025.0 mb)
Winds: from the N (350 degrees) at 3 MPH (3 knots; 1.5 m/s)
Visibility: 6 or more miles (10+ km)
Ceiling: ceiling and visibility are OK
Clouds: unknown
Weather: no significant weather observed at this time

METAR text: LFRS 172000Z AUTO 35004KT 320V030 9999 SCT049 09/02 Q1025 NOSIG
Conditions at: LFRS (NANTES/CHATEAU B, FR) observed 2000 UTC 17 April 2021
Temperature: 9.0°C (48°F)
Dewpoint: 2.0°C (36°F) [RH = 61%]
Pressure (altimeter): 30.27 inches Hg (1025.0 mb)
Winds: from the N (350 degrees) at 5 MPH (4 knots; 2.1 m/s)
Visibility: 6 or more miles (10+ km)
Ceiling: at least 12,000 feet AGL
Clouds: scattered clouds at 4900 feet AGL
Weather: no significant weather observed at this time

METAR text: LFRS 171930Z AUTO 01006KT 340V050 CAVOK 10/02 Q1024 NOSIG
Conditions at: LFRS (NANTES/CHATEAU B, FR) observed 1930 UTC 17 April 2021
Temperature: 10.0°C (50°F)
Dewpoint: 2.0°C (36°F) [RH = 57%]
Pressure (altimeter): 30.24 inches Hg (1024.0 mb)
Winds: from the N (10 degrees) at 7 MPH (6 knots; 3.1 m/s)
Visibility: 6 or more miles (10+ km)
Ceiling: ceiling and visibility are OK
Clouds: unknown
Weather: no significant weather observed at this time

METAR text: LFRS 171900Z AUTO 36006KT 330V030 CAVOK 11/02 Q1024 NOSIG
Conditions at: LFRS (NANTES/CHATEAU B, FR) observed 1900 UTC 17 April 2021
Temperature: 11.0°C (52°F)
Dewpoint: 2.0°C (36°F) [RH = 54%]
Pressure (altimeter): 30.24 inches Hg (1024.0 mb)
Winds: from the N (360 degrees) at 7 MPH (6 knots; 3.1 m/s)
Visibility: 6 or more miles (10+ km)
Ceiling: ceiling and visibility are OK
Clouds: unknown
Weather: no significant weather observed at this time

METAR text: LFRS 171830Z AUTO 36008KT 320V040 CAVOK 12/02 Q1024 NOSIG
Conditions at: LFRS (NANTES/CHATEAU B, FR) observed 1830 UTC 17 April 2021
Temperature: 12.0°C (54°F)
Dewpoint: 2.0°C (36°F) [RH = 50%]
Pressure (altimeter): 30.24 inches Hg (1024.0 mb)
Winds: from the N (360 degrees) at 9 MPH (8 knots; 4.1 m/s)
Visibility: 6 or more miles (10+ km)
Ceiling: ceiling and visibility are OK
Clouds: unknown
Weather: no significant weather observed at this time

METAR text: LFRS 171800Z AUTO 36007KT 320V040 CAVOK 13/02 Q1024 NOSIG
Conditions at: LFRS (NANTES/CHATEAU B, FR) observed 1800 UTC 17 April 2021
Temperature: 13.0°C (55°F)
Dewpoint: 2.0°C (36°F) [RH = 47%]
Pressure (altimeter): 30.24 inches Hg (1024.0 mb)
Winds: from the N (360 degrees) at 8 MPH (7 knots; 3.6 m/s)
Visibility: 6 or more miles (10+ km)
Ceiling: ceiling and visibility are OK
Clouds: unknown
Weather: no significant weather observed at this time

METAR text: LFRS 171730Z AUTO 01007KT 340V040 CAVOK 13/02 Q1024 NOSIG
Conditions at: LFRS (NANTES/CHATEAU B, FR) observed 1730 UTC 17 April 2021
Temperature: 13.0°C (55°F)
Dewpoint: 2.0°C (36°F) [RH = 47%]
Pressure (altimeter): 30.24 inches Hg (1024.0 mb)
Winds: from the N (10 degrees) at 8 MPH (7 knots; 3.6 m/s)
Visibility: 6 or more miles (10+ km)
Ceiling: ceiling and visibility are OK
Clouds: unknown
Weather: no significant weather observed at this time

METAR text: LFRS 171700Z AUTO 01005KT 340V040 CAVOK 13/02 Q1024 NOSIG
Conditions at: LFRS (NANTES/CHATEAU B, FR) observed 1700 UTC 17 April 2021
Temperature: 13.0°C (55°F)
Dewpoint: 2.0°C (36°F) [RH = 47%]
Pressure (altimeter): 30.24 inches Hg (1024.0 mb)
Winds: from the N (10 degrees) at 6 MPH (5 knots; 2.6 m/s)
Visibility: 6 or more miles (10+ km)
Ceiling: ceiling and visibility are OK
Clouds: unknown
Weather: no significant weather observed at this time

METAR text: LFRS 171630Z AUTO 35010KT 300V040 CAVOK 15/02 Q1023 NOSIG
Conditions at: LFRS (NANTES/CHATEAU B, FR) observed 1630 UTC 17 April 2021
Temperature: 15.0°C (59°F)
Dewpoint: 2.0°C (36°F) [RH = 41%]
Pressure (altimeter): 30.21 inches Hg (1023.0 mb)
Winds: from the N (350 degrees) at 12 MPH (10 knots; 5.1 m/s)
Visibility: 6 or more miles (10+ km)
Ceiling: ceiling and visibility are OK
Clouds: unknown
Weather: no significant weather observed at this time

METAR text: LFRS 171600Z AUTO 36007KT 320V060 CAVOK 14/02 Q1023 NOSIG
Conditions at: LFRS (NANTES/CHATEAU B, FR) observed 1600 UTC 17 April 2021
Temperature: 14.0°C (57°F)
Dewpoint: 2.0°C (36°F) [RH = 44%]
Pressure (altimeter): 30.21 inches Hg (1023.0 mb)
Winds: from the N (360 degrees) at 8 MPH (7 knots; 3.6 m/s)
Visibility: 6 or more miles (10+ km)
Ceiling: ceiling and visibility are OK
Clouds: unknown
Weather: no significant weather observed at this time

METAR text: LFRS 171530Z AUTO 01007KT 320V070 CAVOK 15/02 Q1023 NOSIG
Conditions at: LFRS (NANTES/CHATEAU B, FR) observed 1530 UTC 17 April 2021
Temperature: 15.0°C (59°F)
Dewpoint: 2.0°C (36°F) [RH = 41%]
Pressure (altimeter): 30.21 inches Hg (1023.0 mb)
Winds: from the N (10 degrees) at 8 MPH (7 knots; 3.6 m/s)
Visibility: 6 or more miles (10+ km)
Ceiling: ceiling and visibility are OK
Clouds: unknown
Weather: no significant weather observed at this time

METAR text: LFRS 171500Z AUTO 02009KT 330V080 CAVOK 14/01 Q1024 NOSIG
Conditions at: LFRS (NANTES/CHATEAU B, FR) observed 1500 UTC 17 April 2021
Temperature: 14.0°C (57°F)
Dewpoint: 1.0°C (34°F) [RH = 41%]
Pressure (altimeter): 30.24 inches Hg (1024.0 mb)
Winds: from the NNE (20 degrees) at 10 MPH (9 knots; 4.6 m/s)
Visibility: 6 or more miles (10+ km)
Ceiling: ceiling and visibility are OK
Clouds: unknown
Weather: no significant weather observed at this time

METAR text: LFRS 171430Z AUTO 36009G19KT 310V060 CAVOK 14/01 Q1024 NOSIG
Conditions at: LFRS (NANTES/CHATEAU B, FR) observed 1430 UTC 17 April 2021
Temperature: 14.0°C (57°F)
Dewpoint: 1.0°C (34°F) [RH = 41%]
Pressure (altimeter): 30.24 inches Hg (1024.0 mb)
Winds: from the N (360 degrees) at 10 MPH (9 knots; 4.6 m/s)
gusting to 22 MPH (19 knots; 9.8 m/s)
Visibility: 6 or more miles (10+ km)
Ceiling: ceiling and visibility are OK
Clouds: unknown
Weather: no significant weather observed at this time

METAR text: LFRS 171400Z AUTO 01007KT 320V090 CAVOK 14/01 Q1024 NOSIG
Conditions at: LFRS (NANTES/CHATEAU B, FR) observed 1400 UTC 17 April 2021
Temperature: 14.0°C (57°F)
Dewpoint: 1.0°C (34°F) [RH = 41%]
Pressure (altimeter): 30.24 inches Hg (1024.0 mb)
Winds: from the N (10 degrees) at 8 MPH (7 knots; 3.6 m/s)
Visibility: 6 or more miles (10+ km)
Ceiling: ceiling and visibility are OK
Clouds: unknown
Weather: no significant weather observed at this time

METAR text: LFRS 171330Z AUTO 01007KT 320V060 CAVOK 15/02 Q1024 NOSIG
Conditions at: LFRS (NANTES/CHATEAU B, FR) observed 1330 UTC 17 April 2021
Temperature: 15.0°C (59°F)
Dewpoint: 2.0°C (36°F) [RH = 41%]
Pressure (altimeter): 30.24 inches Hg (1024.0 mb)
Winds: from the N (10 degrees) at 8 MPH (7 knots; 3.6 m/s)
Visibility: 6 or more miles (10+ km)
Ceiling: ceiling and visibility are OK
Clouds: unknown
Weather: no significant weather observed at this time

METAR text: LFRS 171300Z AUTO 02009KT 310V080 CAVOK 14/00 Q1024 NOSIG
Conditions at: LFRS (NANTES/CHATEAU B, FR) observed 1300 UTC 17 April 2021
Temperature: 14.0°C (57°F)
Dewpoint: 0.0°C (32°F) [RH = 38%]
Pressure (altimeter): 30.24 inches Hg (1024.0 mb)
Winds: from the NNE (20 degrees) at 10 MPH (9 knots; 4.6 m/s)
Visibility: 6 or more miles (10+ km)
Ceiling: ceiling and visibility are OK
Clouds: unknown
Weather: no significant weather observed at this time

METAR text: LFRS 171230Z AUTO 04008KT 330V080 CAVOK 14/00 Q1025 NOSIG
Conditions at: LFRS (NANTES/CHATEAU B, FR) observed 1230 UTC 17 April 2021
Temperature: 14.0°C (57°F)
Dewpoint: 0.0°C (32°F) [RH = 38%]
Pressure (altimeter): 30.27 inches Hg (1025.0 mb)
Winds: from the NE (40 degrees) at 9 MPH (8 knots; 4.1 m/s)
Visibility: 6 or more miles (10+ km)
Ceiling: ceiling and visibility are OK
Clouds: unknown
Weather: no significant weather observed at this time

METAR text: LFRS 171200Z AUTO 02008KT 330V080 CAVOK 14/01 Q1025 NOSIG
Conditions at: LFRS (NANTES/CHATEAU B, FR) observed 1200 UTC 17 April 2021
Temperature: 14.0°C (57°F)
Dewpoint: 1.0°C (34°F) [RH = 41%]
Pressure (altimeter): 30.27 inches Hg (1025.0 mb)
Winds: from the NNE (20 degrees) at 9 MPH (8 knots; 4.1 m/s)
Visibility: 6 or more miles (10+ km)
Ceiling: ceiling and visibility are OK
Clouds: unknown
Weather: no significant weather observed at this time

METAR text: LFRS 171130Z AUTO 04009KT 320V090 CAVOK 13/01 Q1025 NOSIG
Conditions at: LFRS (NANTES/CHATEAU B, FR) observed 1130 UTC 17 April 2021
Temperature: 13.0°C (55°F)
Dewpoint: 1.0°C (34°F) [RH = 44%]
Pressure (altimeter): 30.27 inches Hg (1025.0 mb)
Winds: from the NE (40 degrees) at 10 MPH (9 knots; 4.6 m/s)
Visibility: 6 or more miles (10+ km)
Ceiling: ceiling and visibility are OK
Clouds: unknown
Weather: no significant weather observed at this time

METAR text: LFRS 171100Z AUTO 05010KT 010V090 CAVOK 13/00 Q1025 NOSIG
Conditions at: LFRS (NANTES/CHATEAU B, FR) observed 1100 UTC 17 April 2021
Temperature: 13.0°C (55°F)
Dewpoint: 0.0°C (32°F) [RH = 41%]
Pressure (altimeter): 30.27 inches Hg (1025.0 mb)
Winds: from the NE (50 degrees) at 12 MPH (10 knots; 5.1 m/s)
Visibility: 6 or more miles (10+ km)
Ceiling: ceiling and visibility are OK
Clouds: unknown
Weather: no significant weather observed at this time

METAR text: LFRS 171030Z AUTO 04012KT 360V070 CAVOK 13/00 Q1026 NOSIG
Conditions at: LFRS (NANTES/CHATEAU B, FR) observed 1030 UTC 17 April 2021
Temperature: 13.0°C (55°F)
Dewpoint: 0.0°C (32°F) [RH = 41%]
Pressure (altimeter): 30.30 inches Hg (1026.0 mb)
Winds: from the NE (40 degrees) at 14 MPH (12 knots; 6.2 m/s)
Visibility: 6 or more miles (10+ km)
Ceiling: ceiling and visibility are OK
Clouds: unknown
Weather: no significant weather observed at this time

METAR text: LFRS 171000Z AUTO 03008KT 350V080 9999 FEW048 12/02 Q1026 NOSIG
Conditions at: LFRS (NANTES/CHATEAU B, FR) observed 1000 UTC 17 April 2021
Temperature: 12.0°C (54°F)
Dewpoint: 2.0°C (36°F) [RH = 50%]
Pressure (altimeter): 30.30 inches Hg (1026.0 mb)
Winds: from the NNE (30 degrees) at 9 MPH (8 knots; 4.1 m/s)
Visibility: 6 or more miles (10+ km)
Ceiling: at least 12,000 feet AGL
Clouds: few clouds at 4800 feet AGL
Weather: no significant weather observed at this time

METAR text: LFRS 170930Z AUTO 04008KT 350V080 CAVOK 11/01 Q1026 NOSIG
Conditions at: LFRS (NANTES/CHATEAU B, FR) observed 0930 UTC 17 April 2021
Temperature: 11.0°C (52°F)
Dewpoint: 1.0°C (34°F) [RH = 50%]
Pressure (altimeter): 30.30 inches Hg (1026.0 mb)
Winds: from the NE (40 degrees) at 9 MPH (8 knots; 4.1 m/s)
Visibility: 6 or more miles (10+ km)
Ceiling: ceiling and visibility are OK
Clouds: unknown
Weather: no significant weather observed at this time

METAR text: LFRS 170900Z AUTO 03007KT 340V080 CAVOK 10/01 Q1026 NOSIG
Conditions at: LFRS (NANTES/CHATEAU B, FR) observed 0900 UTC 17 April 2021
Temperature: 10.0°C (50°F)
Dewpoint: 1.0°C (34°F) [RH = 53%]
Pressure (altimeter): 30.30 inches Hg (1026.0 mb)
Winds: from the NNE (30 degrees) at 8 MPH (7 knots; 3.6 m/s)
Visibility: 6 or more miles (10+ km)
Ceiling: ceiling and visibility are OK
Clouds: unknown
Weather: no significant weather observed at this time

METAR text: LFRS 170830Z AUTO 05008KT 010V070 CAVOK 09/02 Q1026 NOSIG
Conditions at: LFRS (NANTES/CHATEAU B, FR) observed 0830 UTC 17 April 2021
Temperature: 9.0°C (48°F)
Dewpoint: 2.0°C (36°F) [RH = 61%]
Pressure (altimeter): 30.30 inches Hg (1026.0 mb)
Winds: from the NE (50 degrees) at 9 MPH (8 knots; 4.1 m/s)
Visibility: 6 or more miles (10+ km)
Ceiling: ceiling and visibility are OK
Clouds: unknown
Weather: no significant weather observed at this time

Forecast for: LFRS (NANTES/CHATEAU B, FR)
Text: TAF LFRS 181700Z 1818/1924 02006KT CAVOK
Forecast period: 1800 UTC 18 April 2021 to 0000 UTC 20 April 2021
Forecast type: FROM: standard forecast or significant change
Winds: from the NNE (20 degrees) at 7 MPH (6 knots; 3.1 m/s)
Visibility: 6 or more miles (10+ km)
Ceiling: unknown
Clouds: missing
Weather: NSW  (no significant weather)